Time,TemperatureF,DewpointF,PressureIn,WindDirection,WindDirectionDegrees,WindSpeedMPH,WindSpeedGustMPH,Humidity,HourlyPrecipIn,Conditions,Clouds,dailyrainin,SoftwareType,DateUTC
2013-09-12 00:01:00,52.7,49.8,29.88,SSE,151,0.0,0.0,90,0.00,,---,0.00,VWS V12.07,2013-09-12 06:01:00,
2013-09-12 00:16:00,51.7,48.6,29.87,SSE,151,0.0,0.0,89,0.00,,---,0.00,VWS V12.07,2013-09-12 06:16:00,
2013-09-12 00:31:00,50.7,47.9,29.87,SSE,151,0.0,0.0,90,0.00,,---,0.00,VWS V12.07,2013-09-12 06:31:00,
2013-09-12 00:46:00,50.3,47.5,29.89,SSE,151,0.0,0.0,90,0.00,,---,0.00,VWS V12.07,2013-09-12 06:46:00,
2013-09-12 01:01:00,49.8,47.3,29.89,SSE,151,0.0,0.0,91,0.00,,---,0.00,VWS V12.07,2013-09-12 07:01:00,
2013-09-12 01:16:00,49.3,46.8,29.91,SSE,151,0.0,0.0,91,0.00,,---,0.00,VWS V12.07,2013-09-12 07:16:00,
2013-09-12 01:31:00,49.2,46.7,29.91,SSE,150,0.0,0.0,91,0.00,,---,0.00,VWS V12.07,2013-09-12 07:31:00,
2013-09-12 01:46:00,49.1,46.6,29.91,SSE,151,0.0,0.0,91,0.00,,---,0.00,VWS V12.07,2013-09-12 07:46:00,
2013-09-12 02:01:00,49.0,46.8,29.91,SSE,151,3.0,3.0,92,0.00,,---,0.00,VWS V12.07,2013-09-12 08:01:00,
2013-09-12 02:16:00,49.0,46.5,29.91,SSE,150,0.0,4.0,91,0.00,,---,0.00,VWS V12.07,2013-09-12 08:16:00,
2013-09-12 02:31:00,49.2,46.7,29.91,SSE,152,0.0,0.0,91,0.00,,---,0.00,VWS V12.07,2013-09-12 08:31:00,
2013-09-12 02:46:00,49.4,46.9,29.91,SSE,152,0.0,1.0,91,0.00,,---,0.00,VWS V12.07,2013-09-12 08:46:00,
2013-09-12 03:01:00,49.0,46.5,29.90,SSE,152,4.0,5.0,91,0.00,,---,0.00,VWS V12.07,2013-09-12 09:01:00,
2013-09-12 03:16:00,48.8,46.3,29.88,SSE,152,0.0,5.0,91,0.00,,---,0.00,VWS V12.07,2013-09-12 09:16:00,
2013-09-12 03:31:00,47.8,45.3,29.90,SSE,152,3.0,4.0,91,0.00,,---,0.00,VWS V12.07,2013-09-12 09:31:00,
2013-09-12 03:46:00,47.7,45.2,29.89,SSE,152,0.0,5.0,91,0.00,,---,0.00,VWS V12.07,2013-09-12 09:46:00,
2013-09-12 04:01:00,47.4,44.9,29.90,SSE,152,0.0,0.0,91,0.00,,---,0.00,VWS V12.07,2013-09-12 10:01:00,
2013-09-12 04:16:00,47.5,45.3,29.89,SSE,152,0.0,0.0,92,0.00,,---,0.00,VWS V12.07,2013-09-12 10:16:00,
2013-09-12 04:31:00,47.9,45.7,29.89,SSE,147,4.0,4.0,92,0.00,,---,0.00,VWS V12.07,2013-09-12 10:31:00,
2013-09-12 04:46:00,48.1,45.9,29.89,SSE,149,0.0,5.0,92,0.01,,---,0.01,VWS V12.07,2013-09-12 10:46:00,
2013-09-12 05:01:00,48.0,45.8,29.89,SSE,165,3.0,4.0,92,0.01,,---,0.01,VWS V12.07,2013-09-12 11:01:00,
2013-09-12 05:16:00,47.5,45.0,29.89,SSE,165,0.0,4.0,91,0.01,,---,0.01,VWS V12.07,2013-09-12 11:16:00,
2013-09-12 05:31:00,47.5,45.3,29.89,SSE,165,0.0,0.0,92,0.01,,---,0.01,VWS V12.07,2013-09-12 11:31:00,
2013-09-12 05:46:00,46.7,44.2,29.91,SSE,165,0.0,0.0,91,0.01,,---,0.01,VWS V12.07,2013-09-12 11:46:00,
2013-09-12 06:01:00,47.0,44.8,29.91,SSE,165,0.0,0.0,92,0.01,,---,0.01,VWS V12.07,2013-09-12 12:01:00,
2013-09-12 06:16:00,46.4,43.9,29.91,SSE,165,4.0,4.0,91,0.00,,---,0.01,VWS V12.07,2013-09-12 12:16:00,
2013-09-12 06:32:00,46.4,43.9,29.92,SSE,167,2.0,5.0,91,0.00,,---,0.01,VWS V12.07,2013-09-12 12:32:00,
2013-09-12 06:46:00,46.3,43.8,29.92,SSE,167,0.0,5.0,91,0.00,,---,0.01,VWS V12.07,2013-09-12 12:46:00,
2013-09-12 07:01:00,45.9,43.4,29.92,SSE,167,0.0,0.0,91,0.00,,---,0.01,VWS V12.07,2013-09-12 13:01:00,
2013-09-12 07:16:00,46.7,44.2,29.94,SSE,167,0.0,5.0,91,0.00,,---,0.01,VWS V12.07,2013-09-12 13:16:00,
2013-09-12 07:31:00,48.0,44.9,29.94,SW,229,0.0,0.0,89,0.00,,---,0.01,VWS V12.07,2013-09-12 13:31:00,
2013-09-12 07:46:00,49.7,47.5,29.93,South,181,0.0,1.0,92,0.00,,---,0.01,VWS V12.07,2013-09-12 13:46:00,
2013-09-12 08:01:00,53.2,48.8,29.89,SSE,155,0.0,0.0,85,0.00,,---,0.01,VWS V12.07,2013-09-12 14:01:00,
2013-09-12 08:16:00,55.8,49.4,29.89,SSE,155,0.0,0.0,79,0.00,,---,0.01,VWS V12.07,2013-09-12 14:16:00,
2013-09-12 08:30:00,56.3,49.2,29.89,SE,138,1.0,6.0,77,0.00,,---,0.01,VWS V12.07,2013-09-12 14:30:00,
2013-09-12 08:45:00,56.7,49.6,29.88,SE,139,0.0,6.0,77,0.00,,---,0.01,VWS V12.07,2013-09-12 14:45:00,
2013-09-12 09:01:00,58.5,50.6,29.88,SE,140,0.0,5.0,75,0.00,,---,0.01,VWS V12.07,2013-09-12 15:01:00,
2013-09-12 09:15:00,60.0,49.8,29.87,SE,140,0.0,5.0,69,0.00,,---,0.01,VWS V12.07,2013-09-12 15:15:00,
2013-09-12 09:30:00,59.4,48.8,29.88,SE,140,2.0,2.0,68,0.00,,---,0.01,VWS V12.07,2013-09-12 15:30:00,
2013-09-12 09:45:00,60.0,49.0,29.89,SE,140,0.0,5.0,67,0.00,,---,0.01,VWS V12.07,2013-09-12 15:45:00,
2013-09-12 10:01:00,61.1,49.3,29.87,SE,136,0.0,0.0,65,0.00,,---,0.01,VWS V12.07,2013-09-12 16:01:00,
2013-09-12 10:15:00,62.2,49.9,29.88,ESE,118,0.0,2.0,64,0.00,,---,0.01,VWS V12.07,2013-09-12 16:15:00,
2013-09-12 10:31:00,62.3,51.6,29.88,ENE,61,0.0,0.0,68,0.00,,---,0.01,VWS V12.07,2013-09-12 16:31:00,
2013-09-12 10:46:00,62.7,51.6,29.87,North,10,0.0,5.0,67,0.00,,---,0.01,VWS V12.07,2013-09-12 16:46:00,
2013-09-12 11:00:00,63.3,52.6,29.86,North,10,4.0,4.0,68,0.00,,---,0.01,VWS V12.07,2013-09-12 17:00:00,
2013-09-12 11:17:00,64.4,52.4,29.85,North,360,0.0,5.0,65,0.00,,---,0.01,VWS V12.07,2013-09-12 17:17:00,
2013-09-12 11:30:00,65.3,53.2,29.83,NNE,15,5.0,6.0,65,0.00,,---,0.01,VWS V12.07,2013-09-12 17:30:00,
2013-09-12 11:46:00,64.9,52.9,29.83,NNE,17,6.0,9.0,65,0.00,,---,0.01,VWS V12.07,2013-09-12 17:46:00,
2013-09-12 12:01:00,64.8,53.6,29.83,NNE,21,6.0,7.0,67,0.00,,---,0.01,VWS V12.07,2013-09-12 18:01:00,
2013-09-12 12:15:00,64.2,50.0,29.89,West,267,4.0,20.0,60,0.00,,---,0.01,VWS V12.07,2013-09-12 18:15:00,
2013-09-12 12:31:00,63.2,50.4,29.90,WSW,251,10.0,14.0,63,0.00,,---,0.01,VWS V12.07,2013-09-12 18:31:00,
2013-09-12 12:45:00,62.8,49.2,29.90,SW,233,7.0,21.0,61,0.00,,---,0.01,VWS V12.07,2013-09-12 18:45:00,
2013-09-12 13:01:00,65.1,50.0,29.87,WSW,240,0.0,7.0,58,0.00,,---,0.01,VWS V12.07,2013-09-12 19:01:00,
2013-09-12 13:16:00,68.7,48.8,29.84,West,269,0.0,9.0,49,0.00,,---,0.01,VWS V12.07,2013-09-12 19:16:00,
2013-09-12 13:31:00,67.3,47.5,29.86,NE,38,1.0,3.0,49,0.00,,---,0.01,VWS V12.07,2013-09-12 19:31:00,
2013-09-12 13:46:00,67.1,50.9,29.85,ESE,111,3.0,10.0,56,0.00,,---,0.01,VWS V12.07,2013-09-12 19:46:00,
2013-09-12 14:01:00,65.3,50.6,29.87,SE,126,2.0,7.0,59,0.00,,---,0.01,VWS V12.07,2013-09-12 20:01:00,
2013-09-12 14:16:00,65.8,49.7,29.85,ESE,105,0.0,10.0,56,0.00,,---,0.01,VWS V12.07,2013-09-12 20:16:00,
2013-09-12 14:31:00,67.7,51.0,29.83,East,98,3.0,3.0,55,0.00,,---,0.01,VWS V12.07,2013-09-12 20:31:00,
2013-09-12 14:46:00,66.9,51.2,29.82,West,269,0.0,12.0,57,0.00,,---,0.01,VWS V12.07,2013-09-12 20:46:00,
2013-09-12 15:01:00,66.9,51.2,29.81,ESE,116,0.0,0.0,57,0.00,,---,0.01,VWS V12.07,2013-09-12 21:01:00,
2013-09-12 15:15:00,68.1,50.3,29.81,North,360,0.0,11.0,53,0.00,,---,0.01,VWS V12.07,2013-09-12 21:15:00,
2013-09-12 15:31:00,68.2,50.4,29.81,NW,324,6.0,6.0,53,0.00,,---,0.01,VWS V12.07,2013-09-12 21:31:00,
2013-09-12 15:46:00,68.4,49.6,29.80,NNW,348,7.0,11.0,51,0.00,,---,0.01,VWS V12.07,2013-09-12 21:46:00,
2013-09-12 16:01:00,66.9,48.2,29.81,NNE,26,0.0,0.0,51,0.00,,---,0.01,VWS V12.07,2013-09-12 22:01:00,
2013-09-12 16:16:00,66.3,46.6,29.81,North,5,3.0,6.0,49,0.00,,---,0.01,VWS V12.07,2013-09-12 22:16:00,
2013-09-12 16:31:00,66.1,46.9,29.81,NNW,346,3.0,4.0,50,0.00,,---,0.01,VWS V12.07,2013-09-12 22:31:00,
2013-09-12 16:46:00,66.0,47.4,29.80,NNW,331,2.0,6.0,51,0.00,,---,0.01,VWS V12.07,2013-09-12 22:46:00,
2013-09-12 17:01:00,65.7,47.1,29.81,NW,311,0.0,0.0,51,0.00,,---,0.01,VWS V12.07,2013-09-12 23:01:00,
2013-09-12 17:16:00,65.6,49.0,29.82,NW,309,0.0,1.0,55,0.00,,---,0.01,VWS V12.07,2013-09-12 23:16:00,
2013-09-12 17:31:00,64.7,48.7,29.81,WNW,299,0.0,1.0,56,0.00,,---,0.01,VWS V12.07,2013-09-12 23:31:00,
2013-09-12 17:46:00,62.7,49.1,29.82,SW,226,0.0,5.0,61,0.00,,---,0.01,VWS V12.07,2013-09-12 23:46:00,
2013-09-12 18:01:00,62.6,49.4,29.82,WSW,246,0.0,0.0,62,0.00,,---,0.01,VWS V12.07,2013-09-13 00:01:00,
2013-09-12 18:16:00,62.5,48.4,29.85,North,360,0.0,3.0,60,0.00,,---,0.01,VWS V12.07,2013-09-13 00:16:00,
2013-09-12 18:31:00,62.5,48.0,29.85,NNE,14,0.0,0.0,59,0.00,,---,0.01,VWS V12.07,2013-09-13 00:31:00,
2013-09-12 18:46:00,61.4,50.8,29.86,NNE,15,3.0,4.0,68,0.00,,---,0.01,VWS V12.07,2013-09-13 00:46:00,
2013-09-12 19:01:00,58.6,52.5,29.89,East,98,5.0,7.0,80,0.01,,---,0.02,VWS V12.07,2013-09-13 01:01:00,
2013-09-12 19:16:00,56.4,52.0,29.87,South,184,6.0,12.0,85,0.06,,---,0.07,VWS V12.07,2013-09-13 01:16:00,
2013-09-12 19:31:00,55.5,51.7,29.89,South,186,4.0,5.0,87,0.10,,---,0.11,VWS V12.07,2013-09-13 01:31:00,
2013-09-12 19:46:00,54.9,51.4,29.89,South,190,0.0,6.0,88,0.10,,---,0.11,VWS V12.07,2013-09-13 01:46:00,
2013-09-12 20:01:00,54.8,51.9,29.89,South,190,0.0,0.0,90,0.09,,---,0.11,VWS V12.07,2013-09-13 02:01:00,
2013-09-12 20:16:00,54.8,51.9,29.85,SSW,210,3.0,6.0,90,0.11,,---,0.13,VWS V12.07,2013-09-13 02:16:00,
2013-09-12 20:31:00,54.7,51.8,29.86,SW,221,0.0,0.0,90,0.12,,---,0.14,VWS V12.07,2013-09-13 02:31:00,
2013-09-12 20:46:00,54.5,51.6,29.86,SW,221,0.0,0.0,90,0.04,,---,0.15,VWS V12.07,2013-09-13 02:46:00,
2013-09-12 21:01:00,54.4,51.8,29.87,SW,221,0.0,0.0,91,0.05,,---,0.16,VWS V12.07,2013-09-13 03:01:00,
2013-09-12 21:16:00,54.4,51.8,29.85,SW,221,0.0,0.0,91,0.05,,---,0.16,VWS V12.07,2013-09-13 03:16:00,
2013-09-12 21:31:00,54.6,52.3,29.83,SE,144,3.0,5.0,92,0.05,,---,0.16,VWS V12.07,2013-09-13 03:31:00,
2013-09-12 21:47:00,54.7,52.4,29.82,SE,144,3.0,5.0,92,0.02,,---,0.16,VWS V12.07,2013-09-13 03:47:00,
2013-09-12 22:01:00,54.6,52.6,29.82,SSE,165,3.0,4.0,93,0.02,,---,0.16,VWS V12.07,2013-09-13 04:01:00,
2013-09-12 22:16:00,54.5,52.5,29.80,SSE,162,0.0,6.0,93,0.00,,---,0.16,VWS V12.07,2013-09-13 04:16:00,
2013-09-12 22:31:00,54.4,52.4,29.81,SSE,162,0.0,0.0,93,0.00,,---,0.16,VWS V12.07,2013-09-13 04:31:00,
2013-09-12 22:46:00,54.2,52.2,29.81,SSE,161,0.0,0.0,93,0.00,,---,0.16,VWS V12.07,2013-09-13 04:46:00,
2013-09-12 23:01:00,54.3,52.3,29.81,SSE,161,0.0,0.0,93,0.00,,---,0.16,VWS V12.07,2013-09-13 05:01:00,
2013-09-12 23:16:00,54.2,52.2,29.80,South,171,5.0,6.0,93,0.00,,---,0.16,VWS V12.07,2013-09-13 05:16:00,
2013-09-12 23:31:00,54.1,52.1,29.79,SSE,149,0.0,0.0,93,0.00,,---,0.16,VWS V12.07,2013-09-13 05:31:00,
2013-09-12 23:46:00,54.0,52.0,29.78,SSE,150,0.0,5.0,93,0.00,,---,0.16,VWS V12.07,2013-09-13 05:46:00,